createdAt,value
2019-04-10T00:00:09.319Z,5.10
2019-04-10T00:02:37.798Z,4.91
2019-04-10T00:05:07.621Z,5.02
2019-04-10T00:07:36.059Z,5.11
2019-04-10T00:10:05.661Z,4.97
2019-04-10T00:12:34.339Z,4.91
2019-04-10T00:15:03.156Z,4.95
2019-04-10T00:17:31.647Z,4.85
2019-04-10T00:20:00.129Z,4.54
2019-04-10T00:22:28.587Z,4.57
2019-04-10T00:24:57.019Z,4.57
2019-04-10T00:27:26.263Z,4.70
2019-04-10T00:29:54.780Z,4.40
2019-04-10T00:32:23.746Z,4.41
2019-04-10T00:34:52.542Z,4.49
2019-04-10T00:37:26.830Z,4.46
2019-04-10T00:39:51.183Z,4.38
2019-04-10T00:42:19.698Z,4.36
2019-04-10T00:44:48.159Z,4.15
2019-04-10T00:47:17.038Z,4.21
2019-04-10T00:49:46.142Z,4.21
2019-04-10T00:52:14.804Z,3.97
2019-04-10T00:54:43.460Z,3.72
2019-04-10T00:57:12.829Z,3.81
2019-04-10T00:59:42.165Z,3.76
2019-04-10T01:02:10.762Z,3.75
2019-04-10T01:04:39.345Z,3.83
2019-04-10T01:07:08.637Z,3.74
2019-04-10T01:09:37.523Z,3.65
2019-04-10T01:12:06.227Z,3.58
2019-04-10T01:14:34.664Z,3.65
2019-04-10T01:17:04.070Z,3.51
2019-04-10T01:19:32.669Z,3.58
2019-04-10T01:22:01.203Z,3.46
2019-04-10T01:24:29.997Z,3.29
2019-04-10T01:26:59.288Z,3.19
2019-04-10T01:29:28.036Z,3.24
2019-04-10T01:31:56.575Z,3.22
2019-04-10T01:34:25.389Z,3.14
2019-04-10T01:36:54.582Z,3.15
2019-04-10T01:39:24.889Z,3.26
2019-04-10T01:41:54.380Z,3.12
2019-04-10T01:44:23.135Z,2.95
2019-04-10T01:46:52.838Z,3.01
2019-04-10T01:49:21.754Z,3.03
2019-04-10T01:51:50.403Z,3.04
2019-04-10T01:54:19.365Z,2.76
2019-04-10T01:56:48.037Z,2.82
2019-04-10T01:59:18.131Z,2.87
2019-04-10T02:01:48.699Z,2.79
2019-04-10T02:04:17.151Z,2.80
2019-04-10T02:06:45.662Z,2.71
2019-04-10T02:09:15.017Z,2.73
2019-04-10T02:11:43.553Z,2.71
2019-04-10T02:14:12.165Z,2.53
2019-04-10T02:16:41.121Z,2.49
2019-04-10T02:19:10.118Z,2.67
2019-04-10T02:21:38.721Z,2.51
2019-04-10T02:24:07.193Z,2.53
2019-04-10T02:26:36.017Z,2.48
2019-04-10T02:29:04.533Z,2.42
2019-04-10T02:31:34.511Z,2.57
2019-04-10T02:34:04.831Z,2.55
2019-04-10T02:36:34.427Z,2.53
2019-04-10T02:39:15.275Z,2.36
2019-04-10T02:41:36.441Z,2.36
2019-04-10T02:44:05.228Z,2.28
2019-04-10T02:46:33.699Z,2.23
2019-04-10T02:49:03.802Z,2.21
2019-04-10T02:51:32.592Z,2.31
2019-04-10T02:54:02.528Z,2.27
2019-04-10T02:56:32.645Z,2.37
2019-04-10T02:59:02.749Z,2.42
2019-04-10T03:01:31.656Z,2.36
2019-04-10T03:04:01.444Z,2.29
2019-04-10T03:06:31.170Z,2.34
2019-04-10T03:09:14.672Z,2.36
2019-04-10T03:11:31.262Z,2.36
2019-04-10T03:14:01.390Z,2.35
2019-04-10T03:16:31.159Z,2.13
2019-04-10T03:18:59.755Z,2.25
2019-04-10T03:21:29.244Z,2.30
2019-04-10T03:23:58.031Z,2.28
2019-04-10T03:26:27.814Z,2.43
2019-04-10T03:28:57.644Z,2.47
2019-04-10T03:31:27.752Z,2.56
2019-04-10T03:34:03.309Z,2.54
2019-04-10T03:36:36.310Z,2.61
2019-04-10T03:39:08.982Z,2.64
2019-04-10T03:41:37.997Z,2.68
2019-04-10T03:44:06.654Z,2.64
2019-04-10T03:46:45.057Z,2.59
2019-04-10T03:49:16.055Z,2.44
2019-04-10T03:51:45.012Z,2.79
2019-04-10T03:54:13.553Z,2.72
2019-04-10T03:56:42.544Z,2.68
2019-04-10T03:59:11.775Z,2.73
2019-04-10T04:01:40.948Z,2.79
2019-04-10T04:04:09.681Z,2.72
2019-04-10T04:06:38.159Z,2.63
2019-04-10T04:09:10.950Z,2.46
2019-04-10T04:11:37.851Z,2.52
2019-04-10T04:14:06.791Z,2.55
2019-04-10T04:16:35.330Z,2.59
2019-04-10T04:19:05.843Z,2.59
2019-04-10T04:21:35.949Z,2.65
2019-04-10T04:24:04.838Z,2.66
2019-04-10T04:26:33.369Z,2.73
2019-04-10T04:29:02.062Z,2.60
2019-04-10T04:31:31.203Z,2.79
2019-04-10T04:33:59.871Z,2.96
2019-04-10T04:36:28.702Z,3.05
2019-04-10T04:38:57.736Z,3.42
2019-04-10T04:41:27.369Z,3.46
2019-04-10T04:43:55.865Z,3.50
2019-04-10T04:46:24.368Z,3.59
2019-04-10T04:48:52.853Z,3.59
2019-04-10T04:51:21.965Z,3.73
2019-04-10T04:53:50.617Z,3.70
2019-04-10T04:56:19.948Z,3.48
2019-04-10T04:58:49.619Z,3.49
2019-04-10T05:01:19.000Z,3.53
2019-04-10T05:03:48.416Z,3.78
2019-04-10T05:06:18.122Z,3.82
2019-04-10T05:08:46.868Z,3.86
2019-04-10T05:11:15.353Z,3.70
2019-04-10T05:13:43.790Z,3.73
2019-04-10T05:16:12.376Z,3.96
2019-04-10T05:18:40.826Z,4.05
2019-04-10T05:21:09.309Z,4.05
2019-04-10T05:23:38.494Z,3.85
2019-04-10T05:26:08.146Z,4.09
2019-04-10T05:28:36.749Z,4.16
2019-04-10T05:31:05.210Z,4.23
2019-04-10T05:33:33.684Z,4.15
2019-04-10T05:36:02.241Z,4.16
2019-04-10T05:38:30.705Z,4.13
2019-04-10T05:41:01.334Z,4.26
2019-04-10T05:43:30.704Z,4.35
2019-04-10T05:45:59.348Z,4.37
2019-04-10T05:48:27.958Z,4.54
2019-04-10T05:51:02.998Z,4.46
2019-04-10T05:53:26.810Z,5.13
2019-04-10T05:55:55.879Z,4.96
2019-04-10T05:58:24.585Z,4.98
2019-04-10T06:00:53.438Z,4.98
2019-04-10T06:03:22.725Z,4.97
2019-04-10T06:05:51.299Z,4.68
2019-04-10T06:08:19.788Z,5.22
2019-04-10T06:10:48.254Z,5.28
2019-04-10T06:13:17.163Z,5.44
2019-04-10T06:15:45.861Z,5.49
2019-04-10T06:18:15.305Z,5.35
2019-04-10T06:20:45.167Z,5.24
2019-04-10T06:23:14.785Z,5.60
2019-04-10T06:25:43.735Z,5.40
2019-04-10T06:28:12.948Z,5.28
2019-04-10T06:30:41.910Z,5.24
2019-04-10T06:33:11.625Z,5.58
2019-04-10T06:35:40.185Z,5.54
2019-04-10T06:38:08.768Z,5.26
2019-04-10T06:40:37.682Z,5.60
2019-04-10T06:43:06.620Z,5.31
2019-04-10T06:45:35.769Z,6.01
2019-04-10T06:48:04.352Z,6.46
2019-04-10T06:50:32.926Z,6.22
2019-04-10T06:53:01.603Z,6.58
2019-04-10T06:55:30.289Z,6.38
2019-04-10T06:57:59.392Z,6.59
2019-04-10T07:00:28.614Z,5.96
2019-04-10T07:02:57.315Z,6.22
2019-04-10T07:05:36.980Z,6.57
2019-04-10T07:08:05.757Z,6.34
2019-04-10T07:10:33.609Z,6.41
2019-04-10T07:12:56.559Z,6.02
2019-04-10T07:15:25.655Z,5.80
2019-04-10T07:17:55.371Z,6.13
2019-04-10T07:20:24.170Z,6.51
2019-04-10T07:22:53.348Z,6.80
2019-04-10T07:25:22.017Z,6.42
2019-04-10T07:27:54.330Z,5.80
2019-04-10T07:30:26.254Z,6.16
2019-04-10T07:32:56.161Z,6.41
2019-04-10T07:35:25.663Z,6.28
2019-04-10T07:37:56.937Z,6.52
2019-04-10T07:40:24.936Z,6.18
2019-04-10T07:42:54.577Z,6.64
2019-04-10T07:45:26.433Z,6.49
2019-04-10T07:47:53.923Z,6.58
2019-04-10T07:50:22.650Z,6.43
2019-04-10T07:52:52.078Z,6.84
2019-04-10T07:55:21.106Z,7.14
2019-04-10T07:57:51.766Z,6.45
2019-04-10T08:00:20.777Z,7.36
2019-04-10T08:02:49.280Z,6.90
2019-04-10T08:05:18.771Z,7.75
2019-04-10T08:07:47.400Z,7.22
2019-04-10T08:10:15.939Z,7.08
2019-04-10T08:12:50.042Z,7.71
2019-04-10T08:15:14.648Z,7.09
2019-04-10T08:17:44.453Z,8.23
2019-04-10T08:20:13.369Z,8.04
2019-04-10T08:22:42.728Z,8.41
2019-04-10T08:25:11.370Z,8.35
2019-04-10T08:27:39.823Z,8.68
2019-04-10T08:30:10.948Z,8.25
2019-04-10T08:32:50.934Z,8.27
2019-04-10T08:35:11.108Z,8.37
2019-04-10T08:37:40.977Z,8.35
2019-04-10T08:40:11.521Z,9.15
2019-04-10T08:42:40.696Z,9.80
2019-04-10T08:45:11.396Z,9.20
2019-04-10T08:47:40.117Z,8.77
2019-04-10T08:50:09.652Z,9.21
2019-04-10T08:52:39.059Z,9.42
2019-04-10T08:55:08.031Z,8.73
2019-04-10T08:57:36.490Z,9.06
2019-04-10T09:00:08.731Z,8.90
2019-04-10T09:02:38.113Z,8.86
2019-04-10T09:05:09.193Z,8.82
2019-04-10T09:07:38.224Z,8.85
2019-04-10T09:10:07.358Z,8.97
2019-04-10T09:12:35.897Z,9.44
2019-04-10T09:15:05.642Z,9.14
2019-04-10T09:17:34.191Z,9.20
2019-04-10T09:20:06.659Z,9.16
2019-04-10T09:22:55.171Z,9.55
2019-04-10T09:25:06.966Z,9.94
2019-04-10T09:27:35.962Z,9.87
2019-04-10T09:30:06.800Z,9.49
2019-04-10T09:32:35.271Z,9.53
2019-04-10T09:35:04.836Z,8.91
2019-04-10T09:37:34.394Z,9.21
2019-04-10T09:40:05.614Z,10.09
2019-04-10T09:42:35.214Z,9.60
2019-04-10T09:45:04.798Z,9.85
2019-04-10T09:47:34.672Z,9.76
2019-04-10T09:50:03.745Z,9.40
2019-04-10T09:52:32.184Z,10.22
2019-04-10T09:55:00.739Z,10.62
2019-04-10T09:57:29.264Z,9.55
2019-04-10T09:59:57.833Z,10.26
2019-04-10T10:02:27.467Z,9.60
2019-04-10T10:04:56.092Z,10.07
2019-04-10T10:07:24.543Z,10.67
2019-04-10T10:09:53.058Z,10.54
2019-04-10T10:12:21.517Z,10.30
2019-04-10T10:14:49.992Z,10.60
2019-04-10T10:17:18.439Z,11.20
2019-04-10T10:19:48.081Z,10.42
2019-04-10T10:22:16.895Z,9.40
2019-04-10T10:24:46.716Z,10.58
2019-04-10T10:27:15.682Z,10.10
2019-04-10T10:29:44.260Z,10.34
2019-04-10T10:32:12.933Z,10.91
2019-04-10T10:34:41.457Z,12.52
2019-04-10T10:37:12.516Z,11.91
2019-04-10T10:39:41.441Z,12.23
2019-04-10T10:42:09.899Z,12.60
2019-04-10T10:44:40.896Z,12.17
2019-04-10T10:47:09.563Z,11.77
2019-04-10T10:49:38.076Z,11.01
2019-04-10T10:52:09.055Z,11.33
2019-04-10T10:54:38.165Z,12.83
2019-04-10T10:57:07.038Z,13.19
2019-04-10T10:59:35.747Z,12.44
2019-04-10T11:02:04.833Z,11.66
2019-04-10T11:04:33.643Z,12.00
2019-04-10T11:07:02.660Z,10.98
2019-04-10T11:09:32.406Z,11.34
2019-04-10T11:12:01.719Z,13.05
2019-04-10T11:14:31.584Z,14.33
2019-04-10T11:17:01.384Z,14.64
2019-04-10T11:19:31.166Z,14.31
2019-04-10T11:22:00.984Z,13.98
2019-04-10T11:24:29.732Z,16.47
2019-04-10T11:26:58.188Z,15.02
2019-04-10T11:29:28.756Z,17.20
2019-04-10T11:31:58.005Z,17.62
2019-04-10T11:34:26.630Z,16.86
2019-04-10T11:37:16.880Z,15.65
2019-04-10T11:39:28.589Z,15.21
2019-04-10T11:41:57.724Z,15.64
2019-04-10T11:44:27.493Z,14.46
2019-04-10T11:46:57.245Z,13.33
2019-04-10T11:49:27.801Z,13.09
2019-04-10T11:51:59.971Z,12.43
2019-04-10T11:54:29.655Z,15.37
2019-04-10T11:56:58.726Z,16.84
2019-04-10T11:59:28.818Z,16.73
2019-04-10T12:04:30.824Z,13.22
2019-04-10T12:07:01.494Z,13.26
2019-04-10T12:10:49.459Z,13.20
2019-04-10T12:11:59.417Z,12.66
2019-04-10T12:14:28.011Z,13.23
2019-04-10T12:16:56.453Z,12.35
2019-04-10T12:19:25.250Z,16.78
2019-04-10T12:21:53.860Z,18.63
2019-04-10T12:24:22.389Z,17.92
2019-04-10T12:26:51.731Z,19.04
2019-04-10T12:29:20.453Z,18.88
2019-04-10T12:31:48.901Z,18.23
2019-04-10T12:34:18.233Z,17.04
2019-04-10T12:36:47.275Z,17.99
2019-04-10T12:39:16.228Z,17.88
2019-04-10T12:41:45.832Z,17.83
2019-04-10T12:44:14.464Z,18.42
2019-04-10T12:46:43.556Z,21.24
2019-04-10T12:49:12.218Z,21.02
2019-04-10T12:51:41.537Z,18.66
2019-04-10T12:54:10.149Z,15.16
2019-04-10T12:56:38.670Z,21.06
2019-04-10T12:59:07.274Z,16.78
2019-04-10T13:01:36.579Z,17.89
2019-04-10T13:04:05.454Z,14.89
2019-04-10T13:06:33.942Z,16.08
2019-04-10T13:09:09.234Z,20.13
2019-04-10T13:11:34.366Z,16.54
2019-04-10T13:14:03.236Z,14.34
2019-04-10T13:16:32.108Z,14.52
2019-04-10T13:19:00.871Z,14.26
2019-04-10T13:21:29.262Z,13.29
2019-04-10T13:23:57.808Z,12.35
2019-04-10T13:26:26.248Z,12.17
2019-04-10T13:28:54.746Z,11.84
2019-04-10T13:31:23.515Z,14.58
2019-04-10T13:33:53.044Z,20.09
2019-04-10T13:36:21.812Z,21.81
2019-04-10T13:38:50.653Z,21.33
2019-04-10T13:41:19.115Z,17.94
2019-04-10T13:43:47.591Z,14.13
2019-04-10T13:46:16.415Z,12.43
2019-04-10T13:48:45.216Z,12.78
2019-04-10T13:51:14.964Z,13.14
2019-04-10T13:53:43.568Z,19.73
2019-04-10T13:56:12.845Z,20.17
2019-04-10T13:58:42.613Z,21.44
2019-04-10T14:01:13.372Z,21.12
2019-04-10T14:03:43.810Z,20.05
2019-04-10T14:06:12.193Z,21.77
2019-04-10T14:09:01.877Z,21.38
2019-04-10T14:11:13.215Z,19.01
2019-04-10T14:13:42.137Z,17.88
2019-04-10T14:16:10.865Z,21.12
2019-04-10T14:18:39.434Z,20.73
2019-04-10T14:21:12.869Z,13.61
2019-04-10T14:23:39.538Z,12.46
2019-04-10T14:26:24.667Z,14.06
2019-04-10T14:28:53.564Z,13.82
2019-04-10T14:31:26.693Z,14.11
2019-04-10T14:33:56.287Z,13.31
2019-04-10T14:36:25.244Z,12.20
2019-04-10T14:38:55.017Z,12.06
2019-04-10T14:41:24.828Z,11.61
2019-04-10T14:43:54.237Z,11.16
2019-04-10T14:46:24.164Z,11.14
2019-04-10T14:48:52.737Z,11.57
2019-04-10T14:51:21.995Z,12.03
2019-04-10T14:53:51.139Z,11.40
2019-04-10T14:56:19.914Z,11.21
2019-04-10T14:58:48.695Z,11.23
2019-04-10T15:01:17.817Z,11.34
2019-04-10T15:03:46.689Z,10.92
2019-04-10T15:06:15.675Z,10.86
2019-04-10T15:08:44.121Z,11.01
2019-04-10T15:11:13.937Z,10.94
2019-04-10T15:13:42.595Z,11.18
2019-04-10T15:16:11.248Z,11.71
2019-04-10T15:18:39.696Z,11.07
2019-04-10T15:21:08.309Z,10.85
2019-04-10T15:23:36.769Z,10.90
2019-04-10T15:26:05.996Z,10.41
2019-04-10T15:28:35.953Z,10.73
2019-04-10T15:31:05.159Z,10.74
2019-04-10T15:33:33.610Z,10.24
2019-04-10T15:36:02.090Z,10.05
2019-04-10T15:38:30.760Z,9.93
2019-04-10T15:40:59.367Z,10.12
2019-04-10T15:43:29.349Z,10.15
2019-04-10T15:45:58.141Z,10.66
2019-04-10T15:48:27.181Z,10.25
2019-04-10T15:50:55.986Z,10.24
2019-04-10T15:53:24.513Z,10.24
2019-04-10T15:55:53.719Z,10.49
2019-04-10T15:58:23.449Z,10.91
2019-04-10T16:00:52.162Z,10.52
2019-04-10T16:03:21.742Z,10.46
2019-04-10T16:05:50.463Z,10.05
2019-04-10T16:08:20.441Z,10.27
2019-04-10T16:10:50.854Z,10.08
2019-04-10T16:13:22.012Z,10.30
2019-04-10T16:15:50.653Z,9.88
2019-04-10T16:18:23.513Z,10.22
2019-04-10T16:20:54.899Z,9.87
2019-04-10T16:23:40.382Z,9.45
2019-04-10T16:26:09.638Z,9.88
2019-04-10T16:28:38.161Z,9.98
2019-04-10T16:31:07.559Z,9.94
2019-04-10T16:33:36.115Z,9.44
2019-04-10T16:36:05.264Z,9.32
2019-04-10T16:38:33.864Z,9.16
2019-04-10T16:41:02.783Z,9.26
2019-04-10T16:43:32.643Z,9.18
2019-04-10T16:46:02.892Z,9.22
2019-04-10T16:48:31.594Z,9.37
2019-04-10T16:51:00.300Z,9.33
2019-04-10T16:53:29.842Z,9.07
2019-04-10T16:55:59.051Z,9.25
2019-04-10T16:58:27.651Z,8.93
2019-04-10T17:00:56.231Z,8.83
2019-04-10T17:03:25.367Z,8.66
2019-04-10T17:05:54.011Z,8.68
2019-04-10T17:08:23.665Z,8.81
2019-04-10T17:10:52.541Z,8.82
2019-04-10T17:13:21.009Z,8.89
2019-04-10T17:15:50.321Z,8.92
2019-04-10T17:18:21.153Z,8.86
2019-04-10T17:20:51.001Z,8.78
2019-04-10T17:23:20.544Z,8.59
2019-04-10T17:25:50.665Z,8.75
2019-04-10T17:28:22.000Z,8.72
2019-04-10T17:30:49.758Z,8.63
2019-04-10T17:33:18.675Z,8.73
2019-04-10T17:35:47.586Z,8.54
2019-04-10T17:38:16.337Z,8.59
2019-04-10T17:40:50.514Z,8.49
2019-04-10T17:43:15.203Z,8.41
2019-04-10T17:45:44.861Z,8.35
2019-04-10T17:48:13.770Z,8.30
2019-04-10T17:50:43.560Z,8.43
2019-04-10T17:53:13.536Z,8.55
2019-04-10T17:55:42.600Z,8.37
2019-04-10T17:58:11.609Z,8.19
2019-04-10T18:00:43.236Z,8.33
2019-04-10T18:03:13.254Z,8.21
2019-04-10T18:05:42.591Z,8.35
2019-04-10T18:08:12.396Z,8.28
2019-04-10T18:10:48.699Z,8.22
2019-04-10T18:13:11.543Z,8.24
2019-04-10T18:15:40.374Z,8.21
2019-04-10T18:18:08.819Z,8.07
2019-04-10T18:20:37.397Z,8.18
2019-04-10T18:23:07.034Z,8.01
2019-04-10T18:25:36.163Z,8.14
2019-04-10T18:28:05.515Z,8.10
2019-04-10T18:30:35.531Z,7.92
2019-04-10T18:33:05.133Z,8.02
2019-04-10T18:35:35.267Z,8.02
2019-04-10T18:38:04.000Z,8.05
2019-04-10T18:40:32.606Z,8.01
2019-04-10T18:43:02.292Z,7.99
2019-04-10T18:45:31.211Z,7.88
2019-04-10T18:48:00.599Z,7.88
2019-04-10T18:50:29.286Z,7.83
2019-04-10T18:52:58.124Z,7.75
2019-04-10T18:55:26.595Z,7.51
2019-04-10T18:57:55.125Z,7.52
2019-04-10T19:00:37.126Z,7.56
2019-04-10T19:03:13.074Z,7.57
2019-04-10T19:05:48.921Z,7.49
2019-04-10T19:08:17.708Z,7.54
2019-04-10T19:10:47.345Z,7.45
2019-04-10T19:13:17.177Z,7.47
2019-04-10T19:15:46.967Z,7.39
2019-04-10T19:18:15.632Z,7.23
2019-04-10T19:20:44.265Z,7.29
2019-04-10T19:23:13.066Z,7.29
2019-04-10T19:25:43.382Z,7.23
2019-04-10T19:28:12.821Z,7.11
2019-04-10T19:30:43.537Z,7.09
2019-04-10T19:33:12.618Z,7.04
2019-04-10T19:35:41.437Z,6.81
2019-04-10T19:38:11.351Z,6.93
2019-04-10T19:40:40.451Z,6.96
2019-04-10T19:43:10.244Z,6.77
2019-04-10T19:45:39.752Z,6.77
2019-04-10T19:48:08.977Z,6.87
2019-04-10T19:50:37.658Z,6.75
2019-04-10T19:53:06.348Z,6.57
2019-04-10T19:55:35.923Z,6.72
2019-04-10T19:58:05.848Z,6.71
2019-04-10T20:00:36.776Z,6.86
2019-04-10T20:03:05.765Z,6.86
2019-04-10T20:05:34.261Z,6.72
2019-04-10T20:08:02.914Z,6.74
2019-04-10T20:10:31.370Z,6.66
2019-04-10T20:12:59.898Z,6.62
2019-04-10T20:15:28.841Z,6.68
2019-04-10T20:17:58.222Z,6.59
2019-04-10T20:20:27.115Z,6.60
2019-04-10T20:22:56.271Z,6.58
2019-04-10T20:25:26.123Z,6.55
2019-04-10T20:27:54.867Z,6.59
2019-04-10T20:30:25.828Z,6.31
2019-04-10T20:32:54.501Z,6.27
2019-04-10T20:35:25.052Z,6.38
2019-04-10T20:37:53.403Z,6.37
2019-04-10T20:40:22.158Z,6.25
2019-04-10T20:42:50.951Z,6.31
2019-04-10T20:45:21.049Z,6.46
2019-04-10T20:47:49.816Z,6.42
2019-04-10T20:50:18.267Z,6.37
2019-04-10T20:52:47.311Z,6.40
2019-04-10T20:55:15.838Z,6.22
2019-04-10T20:57:44.417Z,6.19
2019-04-10T21:00:18.213Z,6.26
2019-04-10T21:02:49.091Z,6.25
2019-04-10T21:05:18.063Z,6.26
2019-04-10T21:07:46.609Z,6.23
2019-04-10T21:10:15.099Z,6.28
2019-04-10T21:12:44.144Z,6.23
2019-04-10T21:15:13.212Z,6.21
2019-04-10T21:17:42.464Z,6.24
2019-04-10T21:20:13.207Z,6.43
2019-04-10T21:22:41.553Z,6.09
2019-04-10T21:25:10.316Z,6.16
2019-04-10T21:27:39.744Z,6.08
2019-04-10T21:30:26.361Z,6.11
2019-04-10T21:33:00.268Z,6.21
2019-04-10T21:35:37.123Z,6.14
2019-04-10T21:38:06.737Z,6.03
2019-04-10T21:40:35.410Z,6.01
2019-04-10T21:43:04.302Z,6.14
2019-04-10T21:45:35.025Z,6.02
2019-04-10T21:48:03.551Z,6.03
2019-04-10T21:50:32.006Z,5.95
2019-04-10T21:53:00.585Z,6.01
2019-04-10T21:55:29.187Z,5.89
2019-04-10T21:57:57.817Z,5.89
2019-04-10T22:00:45.156Z,5.99
2019-04-10T22:03:13.668Z,6.08
2019-04-10T22:05:44.536Z,6.05
2019-04-10T22:08:14.892Z,5.92
2019-04-10T22:10:45.073Z,6.05
2019-04-10T22:13:13.617Z,6.09
2019-04-10T22:15:44.816Z,6.18
2019-04-10T22:18:14.774Z,6.03
2019-04-10T22:20:43.764Z,6.01
2019-04-10T22:23:12.717Z,6.17
2019-04-10T22:25:41.169Z,6.20
2019-04-10T22:28:09.764Z,6.06
2019-04-10T22:30:38.282Z,5.94
2019-04-10T22:33:07.656Z,5.97
2019-04-10T22:35:36.202Z,5.82
2019-04-10T22:38:04.729Z,5.86
2019-04-10T22:40:33.388Z,6.06
2019-04-10T22:43:01.909Z,5.99
2019-04-10T22:45:31.709Z,6.17
2019-04-10T22:48:01.218Z,6.03
2019-04-10T22:50:30.844Z,6.05
2019-04-10T22:52:59.597Z,5.97
2019-04-10T22:55:28.221Z,5.97
2019-04-10T22:57:56.942Z,5.96
2019-04-10T23:00:28.004Z,6.10
2019-04-10T23:02:57.273Z,5.98
2019-04-10T23:05:26.775Z,5.89
2019-04-10T23:07:55.598Z,6.04
2019-04-10T23:10:24.750Z,6.04
2019-04-10T23:12:59.974Z,5.90
2019-04-10T23:15:25.129Z,5.61
2019-04-10T23:17:53.877Z,5.84
2019-04-10T23:20:22.466Z,5.70
2019-04-10T23:22:50.957Z,6.08
2019-04-10T23:25:20.495Z,6.02
2019-04-10T23:27:51.996Z,5.51
2019-04-10T23:30:19.923Z,5.67
2019-04-10T23:32:48.963Z,5.60
2019-04-10T23:35:17.541Z,5.66
2019-04-10T23:37:46.921Z,5.76
2019-04-10T23:40:16.861Z,5.75
2019-04-10T23:42:46.356Z,5.60
2019-04-10T23:45:15.613Z,5.45
2019-04-10T23:47:44.480Z,5.40
2019-04-10T23:50:15.026Z,5.54
2019-04-10T23:52:44.350Z,5.38
2019-04-10T23:55:13.636Z,5.36
2019-04-10T23:57:43.310Z,5.29
